Time;durP1;ratioP1;P1;durP2;ratioP2;P2;SDS_P1;SDS_P2;PMS_P1;PMS_P2;Temp;Humidity;BMP_temperature;BMP_pressure;BME280_temperature;BME280_humidity;BME280_pressure;Samples;Min_cycle;Max_cycle;Signal;HPM_P1;HPM_P2
2020/12/21 00:01:58;;;;;;;4.60;0.98;;;23.80;99.90;;;;;;4959650;28;20034;-90
2020/12/21 00:04:25;;;;;;;5.47;0.90;;;23.70;99.90;;;;;;4982386;28;20026;-91
2020/12/21 00:06:54;;;;;;;5.13;0.80;;;23.80;99.90;;;;;;4992875;28;20030;-89
2020/12/21 00:09:22;;;;;;;4.70;0.77;;;23.90;99.90;;;;;;4948118;28;20042;-91
2020/12/21 00:11:50;;;;;;;4.50;1.27;;;23.80;99.90;;;;;;4974524;28;20062;-91
2020/12/21 00:14:18;;;;;;;7.22;0.95;;;23.70;99.90;;;;;;4976941;28;20030;-90
2020/12/21 00:16:50;;;;;;;5.90;0.82;;;23.70;99.90;;;;;;4989087;28;20055;-89
2020/12/21 00:19:20;;;;;;;10.10;1.70;;;23.70;99.90;;;;;;4974514;28;20047;-91
2020/12/21 00:21:49;;;;;;;7.65;1.23;;;23.60;99.90;;;;;;4997351;23;20043;-90
2020/12/21 00:24:17;;;;;;;8.48;1.35;;;23.60;99.90;;;;;;4979892;23;20494;-90
2020/12/21 00:26:49;;;;;;;6.90;1.33;;;23.50;99.90;;;;;;4938349;28;20034;-91
2020/12/21 00:29:17;;;;;;;7.03;1.23;;;23.50;99.90;;;;;;4967359;23;20075;-91
2020/12/21 00:31:45;;;;;;;5.85;1.10;;;23.40;99.90;;;;;;4938384;29;21106;-92
2020/12/21 00:34:13;;;;;;;6.22;1.38;;;23.50;99.90;;;;;;4947316;28;20091;-90
2020/12/21 00:36:42;;;;;;;5.80;1.25;;;23.50;99.90;;;;;;4946519;23;20130;-89
2020/12/21 00:39:12;;;;;;;7.95;1.70;;;23.50;99.90;;;;;;4973198;28;20053;-91
2020/12/21 00:41:40;;;;;;;6.80;0.90;;;23.70;99.90;;;;;;4963580;28;20447;-90
2020/12/21 00:44:07;;;;;;;7.78;0.95;;;23.80;99.90;;;;;;4941370;29;20038;-80
2020/12/21 00:46:34;;;;;;;4.78;0.95;;;23.90;99.90;;;;;;4952918;28;20036;-90
2020/12/21 00:49:02;;;;;;;6.50;0.90;;;23.90;99.90;;;;;;4952921;28;20037;-90
2020/12/21 00:51:29;;;;;;;6.82;1.00;;;23.90;99.90;;;;;;4952337;28;20063;-91
2020/12/21 00:53:57;;;;;;;10.82;2.10;;;23.90;99.90;;;;;;4951046;23;20066;-92
2020/12/21 00:56:25;;;;;;;8.13;1.25;;;23.80;99.90;;;;;;4949808;28;20547;-92
2020/12/21 00:58:53;;;;;;;10.25;1.75;;;23.80;99.90;;;;;;4974312;28;20027;-91
2020/12/21 01:01:28;;;;;;;9.00;1.35;;;23.80;99.90;;;;;;4966974;28;20047;-89
2020/12/21 01:03:57;;;;;;;6.35;1.58;;;23.70;99.90;;;;;;4947241;28;20032;-90
2020/12/21 01:06:25;;;;;;;5.70;1.00;;;23.60;99.90;;;;;;4949607;28;20043;-91
2020/12/21 01:08:53;;;;;;;6.72;0.95;;;23.50;99.90;;;;;;4942455;28;20031;-92
2020/12/21 01:11:22;;;;;;;6.57;1.08;;;23.40;99.90;;;;;;4951488;28;20121;-89
2020/12/21 01:13:50;;;;;;;7.78;0.95;;;23.30;99.90;;;;;;4963343;28;20115;-91
2020/12/21 01:16:20;;;;;;;5.85;0.93;;;23.30;99.90;;;;;;4953275;28;20567;-90
2020/12/21 01:18:48;;;;;;;6.80;1.02;;;23.30;99.90;;;;;;4966990;28;20029;-89
2020/12/21 01:21:24;;;;;;;7.47;0.82;;;23.30;99.90;;;;;;4953799;28;20031;-91
2020/12/21 01:23:51;;;;;;;6.15;0.98;;;23.30;99.90;;;;;;4939417;28;20098;-87
2020/12/21 01:26:19;;;;;;;6.90;1.10;;;23.30;99.90;;;;;;4974278;23;20054;-85
2020/12/21 01:28:48;;;;;;;6.78;1.10;;;23.30;99.90;;;;;;4958938;28;20035;-86
2020/12/21 01:31:16;;;;;;;9.25;1.23;;;23.30;99.90;;;;;;4974378;28;20066;-86
2020/12/21 01:33:44;;;;;;;7.50;1.23;;;23.40;99.90;;;;;;4984449;28;20104;-87
2020/12/21 01:36:11;;;;;;;9.63;1.48;;;23.30;99.90;;;;;;4991503;28;20547;-82
2020/12/21 01:38:38;;;;;;;3.75;0.70;;;23.20;99.90;;;;;;4980057;28;20063;-82
2020/12/21 01:41:06;;;;;;;4.07;0.82;;;23.20;99.90;;;;;;4973717;28;20136;-82
2020/12/21 01:43:33;;;;;;;6.20;1.38;;;23.30;99.90;;;;;;4961946;28;20023;-81
2020/12/21 01:46:12;;;;;;;5.28;1.38;;;23.30;99.90;;;;;;4968948;28;20412;-78
2020/12/21 01:48:41;;;;;;;6.20;1.10;;;23.30;99.90;;;;;;4986558;28;20030;-78
2020/12/21 01:51:14;;;;;;;8.77;1.25;;;23.50;99.90;;;;;;4972619;28;20039;-79
2020/12/21 01:53:41;;;;;;;10.23;1.50;;;23.50;99.90;;;;;;4969864;28;20022;-80
2020/12/21 01:56:10;;;;;;;3.50;1.00;;;23.60;99.90;;;;;;4955307;28;20057;-79
2020/12/21 01:58:37;;;;;;;9.77;1.30;;;23.70;99.90;;;;;;4970676;28;20031;-79
2020/12/21 02:01:05;;;;;;;7.40;1.20;;;23.70;99.90;;;;;;4973252;28;20038;-82
2020/12/21 02:03:32;;;;;;;4.13;0.82;;;23.70;99.90;;;;;;4970742;28;20026;-81
2020/12/21 02:05:59;;;;;;;9.98;1.40;;;23.50;99.90;;;;;;4954168;28;20043;-80
2020/12/21 02:08:27;;;;;;;6.45;1.00;;;23.60;99.90;;;;;;4969560;28;20074;-80
2020/12/21 02:10:54;;;;;;;5.15;0.85;;;23.60;99.90;;;;;;4972835;28;20022;-79
2020/12/21 02:13:21;;;;;;;7.20;1.50;;;23.50;99.90;;;;;;4970420;28;20426;-80
2020/12/21 02:15:48;;;;;;;4.30;0.80;;;23.20;99.90;;;;;;4972764;28;20038;-79
2020/12/21 02:18:16;;;;;;;5.07;1.05;;;23.10;99.90;;;;;;4953341;28;20412;-80
2020/12/21 02:20:43;;;;;;;7.45;1.73;;;23.10;99.90;;;;;;4958888;28;20027;-79
2020/12/21 02:23:11;;;;;;;10.52;1.60;;;23.00;99.90;;;;;;4967406;28;20478;-81
2020/12/21 02:25:38;;;;;;;3.58;0.60;;;22.80;99.90;;;;;;4960169;28;20035;-79
2020/12/21 02:28:05;;;;;;;6.38;1.00;;;22.80;99.90;;;;;;4990968;23;20070;-79
2020/12/21 02:30:33;;;;;;;7.95;1.60;;;22.70;99.90;;;;;;4979660;23;20056;-78
2020/12/21 02:33:00;;;;;;;8.20;1.13;;;22.70;99.90;;;;;;4949818;28;20043;-80
2020/12/21 02:35:31;;;;;;;7.75;1.13;;;22.60;99.90;;;;;;4976021;23;20061;-80
2020/12/21 02:37:59;;;;;;;5.88;0.82;;;22.70;99.90;;;;;;4947300;28;20019;-80
2020/12/21 02:40:26;;;;;;;7.53;1.48;;;22.50;99.90;;;;;;4952184;28;20464;-80
2020/12/21 02:42:53;;;;;;;7.55;1.35;;;22.40;99.90;;;;;;4958861;28;20398;-81
2020/12/21 02:45:20;;;;;;;5.40;0.77;;;22.30;99.90;;;;;;4957754;23;20058;-83
2020/12/21 02:47:48;;;;;;;10.23;1.25;;;22.20;99.90;;;;;;4951575;28;20366;-82
2020/12/21 02:50:15;;;;;;;4.13;0.82;;;22.10;99.90;;;;;;4953247;29;20055;-85
2020/12/21 02:52:42;;;;;;;8.07;1.48;;;22.20;99.90;;;;;;4953479;28;20046;-83
2020/12/21 02:55:10;;;;;;;13.15;1.63;;;22.10;99.90;;;;;;4951283;28;20502;-81
2020/12/21 02:57:37;;;;;;;5.40;1.20;;;22.00;99.90;;;;;;4955214;28;20026;-81
2020/12/21 03:02:32;;;;;;;9.70;1.30;;;22.00;99.90;;;;;;4981790;23;20047;-80
2020/12/21 03:04:59;;;;;;;7.20;1.75;;;21.90;99.90;;;;;;4960771;28;20027;-81
2020/12/21 03:07:26;;;;;;;6.25;1.27;;;21.90;99.90;;;;;;4969845;28;20027;-79
2020/12/21 03:09:53;;;;;;;12.68;1.33;;;21.90;99.90;;;;;;4969574;28;20019;-80
2020/12/21 03:12:24;;;;;;;9.77;1.38;;;21.80;99.90;;;;;;4966830;28;20019;-80
2020/12/21 03:14:52;;;;;;;11.48;2.08;;;21.90;99.90;;;;;;4971190;28;20034;-83
2020/12/21 03:17:20;;;;;;;9.88;1.38;;;21.80;99.90;;;;;;4967955;28;20525;-83
2020/12/21 03:19:53;;;;;;;10.55;1.83;;;21.80;99.90;;;;;;4971667;28;20026;-82
2020/12/21 03:22:22;;;;;;;9.27;1.50;;;21.90;99.90;;;;;;4951420;28;20077;-80
2020/12/21 03:24:50;;;;;;;10.20;2.00;;;21.80;99.90;;;;;;4970306;28;20093;-79
2020/12/21 03:27:18;;;;;;;7.50;1.25;;;21.70;99.90;;;;;;4969930;28;20074;-79
2020/12/21 03:29:45;;;;;;;8.18;1.65;;;21.70;99.90;;;;;;4957957;28;20093;-80
2020/12/21 03:32:13;;;;;;;10.20;1.80;;;21.80;99.90;;;;;;4956410;28;20512;-80
2020/12/21 03:34:41;;;;;;;8.02;0.90;;;21.80;99.90;;;;;;4976475;23;20050;-80
2020/12/21 03:37:09;;;;;;;7.55;1.40;;;21.80;99.90;;;;;;4967124;28;20027;-79
2020/12/21 03:39:36;;;;;;;8.48;1.63;;;21.80;99.90;;;;;;4955694;28;20023;-80
2020/12/21 03:42:04;;;;;;;6.30;1.20;;;21.70;99.90;;;;;;4967267;28;20015;-80
2020/12/21 03:44:31;;;;;;;9.63;1.48;;;21.70;99.90;;;;;;4975081;28;20070;-81
2020/12/21 03:46:59;;;;;;;7.43;1.85;;;21.80;99.90;;;;;;4967753;28;20027;-81
2020/12/21 03:49:26;;;;;;;8.65;1.25;;;21.80;99.90;;;;;;4972943;28;20506;-80
2020/12/21 03:51:53;;;;;;;9.15;2.33;;;21.80;99.90;;;;;;4958326;28;20049;-80
2020/12/21 03:54:21;;;;;;;6.60;1.60;;;21.70;99.90;;;;;;4974581;28;20082;-80
2020/12/21 03:56:49;;;;;;;8.07;1.25;;;21.70;99.90;;;;;;4971413;28;20022;-79
2020/12/21 03:59:16;;;;;;;4.72;1.20;;;21.80;99.90;;;;;;4966581;28;20117;-79
2020/12/21 04:01:43;;;;;;;8.13;1.38;;;21.80;99.90;;;;;;4954446;28;20034;-80
2020/12/21 04:04:11;;;;;;;7.40;1.63;;;21.80;99.90;;;;;;4972830;28;20048;-80
2020/12/21 04:06:39;;;;;;;10.38;1.73;;;21.80;99.90;;;;;;4972995;28;20562;-79
2020/12/21 04:09:06;;;;;;;7.72;1.15;;;21.80;99.90;;;;;;4974442;28;20035;-80
2020/12/21 04:11:33;;;;;;;8.02;1.52;;;21.60;99.90;;;;;;4969974;28;20086;-80
2020/12/21 04:14:01;;;;;;;8.63;1.45;;;21.60;99.90;;;;;;4956496;28;20492;-80
2020/12/21 04:16:28;;;;;;;6.38;0.90;;;21.40;99.90;;;;;;4969914;28;20031;-80
2020/12/21 04:18:55;;;;;;;5.20;0.70;;;21.30;99.90;;;;;;4974518;28;20018;-80
2020/12/21 04:21:23;;;;;;;4.10;0.95;;;21.30;99.90;;;;;;4971546;28;20027;-80
2020/12/21 04:23:50;;;;;;;2.80;0.73;;;21.30;99.90;;;;;;4971664;28;20404;-80
2020/12/21 04:26:17;;;;;;;3.13;0.77;;;21.20;99.90;;;;;;4973334;28;20047;-82
2020/12/21 04:28:45;;;;;;;2.25;0.60;;;21.20;99.90;;;;;;4973993;28;20015;-81
2020/12/21 04:31:12;;;;;;;5.50;0.98;;;21.20;99.90;;;;;;4970700;28;20419;-82
2020/12/21 04:33:39;;;;;;;5.35;0.85;;;21.20;99.90;;;;;;4970893;28;20050;-80
2020/12/21 04:36:13;;;;;;;5.90;0.90;;;21.20;99.90;;;;;;5002362;23;20062;-81
2020/12/21 04:38:42;;;;;;;10.65;1.70;;;21.20;99.90;;;;;;4989760;23;20042;-79
2020/12/21 04:41:10;;;;;;;2.60;0.60;;;21.10;99.90;;;;;;4974068;28;20040;-82
2020/12/21 04:43:38;;;;;;;5.03;0.90;;;20.90;99.90;;;;;;4975751;23;20185;-79
2020/12/21 04:46:09;;;;;;;2.95;0.85;;;20.90;99.90;;;;;;4989333;28;20030;-80
2020/12/21 04:48:41;;;;;;;1.73;0.60;;;20.70;99.90;;;;;;4974788;28;20501;-81
2020/12/21 04:51:09;;;;;;;4.68;0.65;;;20.70;99.90;;;;;;4992239;23;20037;-82
2020/12/21 04:53:40;;;;;;;7.15;1.05;;;20.60;99.90;;;;;;4963053;28;20476;-83
2020/12/21 04:56:07;;;;;;;6.35;1.33;;;20.60;99.90;;;;;;4956261;28;20479;-82
2020/12/21 04:58:35;;;;;;;4.70;1.00;;;20.70;99.90;;;;;;4972859;28;20115;-84
2020/12/21 05:01:02;;;;;;;3.65;1.23;;;20.70;99.90;;;;;;4973763;28;20037;-83
2020/12/21 05:03:30;;;;;;;8.45;1.20;;;20.60;99.90;;;;;;4979048;28;20062;-81
2020/12/21 05:06:07;;;;;;;3.75;1.15;;;20.70;99.90;;;;;;4978067;28;20040;-82
2020/12/21 05:08:34;;;;;;;5.10;1.10;;;20.80;99.90;;;;;;4989488;23;20046;-82
2020/12/21 05:11:04;;;;;;;10.45;2.28;;;20.80;99.90;;;;;;4975848;28;20121;-84
2020/12/21 05:13:34;;;;;;;4.18;1.17;;;20.70;99.90;;;;;;4958562;28;20795;-84
2020/12/21 05:16:03;;;;;;;4.63;1.63;;;20.60;99.90;;;;;;4956332;28;20395;-82
2020/12/21 05:18:34;;;;;;;4.85;1.02;;;20.60;99.90;;;;;;4973165;28;20118;-85
2020/12/21 05:21:07;;;;;;;4.55;0.98;;;20.50;99.90;;;;;;4959001;28;20384;-83
2020/12/21 05:23:37;;;;;;;3.10;0.70;;;20.60;99.90;;;;;;4972833;28;20125;-85
2020/12/21 05:26:11;;;;;;;7.75;1.60;;;20.60;99.90;;;;;;4974177;28;20030;-82
2020/12/21 05:28:40;;;;;;;6.47;1.02;;;20.50;99.90;;;;;;4973437;28;20019;-82
2020/12/21 05:31:09;;;;;;;4.50;1.45;;;20.30;99.90;;;;;;4972971;28;20046;-82
2020/12/21 05:33:44;;;;;;;3.20;1.00;;;20.30;99.90;;;;;;4983856;28;20026;-81
2020/12/21 05:36:17;;;;;;;5.57;1.00;;;20.40;99.90;;;;;;4987493;28;20019;-82
2020/12/21 05:38:54;;;;;;;3.60;1.00;;;20.40;99.90;;;;;;4964635;28;20173;-82
2020/12/21 05:41:21;;;;;;;6.78;1.10;;;20.40;99.90;;;;;;4981743;23;20096;-82
2020/12/21 05:43:51;;;;;;;6.15;1.25;;;20.40;99.90;;;;;;4984312;28;20034;-81
2020/12/21 05:46:23;;;;;;;5.38;1.35;;;20.40;99.90;;;;;;4987811;28;20023;-81
2020/12/21 05:48:53;;;;;;;5.15;0.95;;;20.50;99.90;;;;;;4971012;28;20041;-82
2020/12/21 05:51:36;;;;;;;5.40;1.23;;;20.50;99.90;;;;;;4946867;28;20050;-82
2020/12/21 05:54:06;;;;;;;5.85;1.00;;;20.40;99.90;;;;;;4958109;28;20026;-82
2020/12/21 05:56:35;;;;;;;5.90;1.13;;;20.40;99.90;;;;;;4968385;28;20126;-82
2020/12/21 05:59:04;;;;;;;5.68;1.00;;;20.40;99.90;;;;;;4963852;28;20046;-82
2020/12/21 06:01:31;;;;;;;3.63;0.93;;;20.40;99.90;;;;;;4970129;28;20019;-81
2020/12/21 06:04:04;;;;;;;5.03;1.10;;;20.40;99.90;;;;;;4967265;28;20039;-81
2020/12/21 06:06:34;;;;;;;9.37;2.23;;;20.40;99.90;;;;;;4957278;28;20595;-81
2020/12/21 06:09:04;;;;;;;4.47;0.90;;;20.40;99.90;;;;;;4971420;28;20073;-82
2020/12/21 06:11:39;;;;;;;5.03;0.93;;;20.30;99.90;;;;;;4949750;28;20049;-81
2020/12/21 06:14:17;;;;;;;5.25;1.48;;;20.30;99.90;;;;;;4960933;28;20023;-82
2020/12/21 06:16:45;;;;;;;5.10;0.80;;;20.30;99.90;;;;;;4970546;28;20031;-82
2020/12/21 06:19:14;;;;;;;3.65;0.95;;;20.40;99.90;;;;;;4972267;28;20043;-79
2020/12/21 06:21:55;;;;;;;6.75;1.38;;;20.30;99.90;;;;;;4970135;28;20023;-83
2020/12/21 06:24:23;;;;;;;4.68;0.70;;;20.30;99.90;;;;;;4972053;28;20406;-78
2020/12/21 06:26:52;;;;;;;8.18;1.45;;;20.30;99.90;;;;;;4971293;28;20027;-81
2020/12/21 06:29:21;;;;;;;4.35;1.13;;;20.20;99.90;;;;;;4955247;28;20393;-79
2020/12/21 06:32:02;;;;;;;4.00;1.02;;;20.00;99.90;;;;;;4971167;28;20096;-82
2020/12/21 06:34:29;;;;;;;3.75;1.02;;;20.00;99.90;;;;;;4971868;28;20074;-79
2020/12/21 06:37:11;;;;;;;7.20;0.98;;;20.00;99.90;;;;;;4970602;28;20058;-80
2020/12/21 06:39:39;;;;;;;6.90;1.50;;;20.00;99.90;;;;;;4972145;28;20027;-81
2020/12/21 06:42:15;;;;;;;5.10;1.63;;;20.00;99.90;;;;;;4974085;23;20051;-82
2020/12/21 06:44:43;;;;;;;4.82;1.15;;;20.00;99.90;;;;;;4960682;23;20066;-82
2020/12/21 06:47:12;;;;;;;2.75;1.20;;;20.00;99.90;;;;;;4999145;23;20053;-82
2020/12/21 06:49:40;;;;;;;2.85;1.05;;;20.00;99.90;;;;;;4980770;23;20062;-81
2020/12/21 06:52:08;;;;;;;3.22;1.15;;;20.00;99.90;;;;;;4956619;28;20050;-81
2020/12/21 06:54:36;;;;;;;3.10;0.93;;;20.00;99.90;;;;;;4956919;28;20023;-81
2020/12/21 06:57:03;;;;;;;3.70;0.93;;;19.90;99.90;;;;;;4972647;28;20023;-73
2020/12/21 06:59:30;;;;;;;2.70;0.98;;;19.90;99.90;;;;;;4964702;28;20027;-73
2020/12/21 07:01:58;;;;;;;2.47;1.05;;;19.90;99.90;;;;;;4972377;28;20027;-74
2020/12/21 07:04:30;;;;;;;4.57;0.80;;;19.90;99.90;;;;;;4959302;28;20050;-73
2020/12/21 07:07:05;;;;;;;2.85;0.70;;;19.80;99.90;;;;;;4967809;28;20510;-74
2020/12/21 07:09:38;;;;;;;3.97;1.23;;;19.70;99.90;;;;;;4980721;23;20055;-82
2020/12/21 07:12:07;;;;;;;3.00;1.17;;;19.70;99.90;;;;;;4972593;28;20086;-82
2020/12/21 07:14:39;;;;;;;3.15;0.93;;;19.80;99.90;;;;;;4975863;28;20019;-81
2020/12/21 07:17:18;;;;;;;3.83;2.10;;;19.80;99.90;;;;;;4973763;28;20476;-81
2020/12/21 07:19:45;;;;;;;6.93;1.88;;;19.80;99.90;;;;;;4972776;28;20125;-81
2020/12/21 07:22:14;;;;;;;4.80;1.88;;;19.70;99.90;;;;;;4960056;28;20026;-81
2020/12/21 07:24:42;;;;;;;4.13;1.33;;;19.80;99.90;;;;;;4958503;28;20115;-81
2020/12/21 07:27:10;;;;;;;2.67;0.80;;;19.90;99.90;;;;;;4989825;23;20071;-81
2020/12/21 07:29:41;;;;;;;5.28;1.20;;;19.80;99.90;;;;;;4975329;28;20030;-81
2020/12/21 07:32:09;;;;;;;3.67;0.85;;;19.80;99.90;;;;;;4972566;28;20038;-81
2020/12/21 07:34:37;;;;;;;3.88;0.93;;;19.80;99.90;;;;;;4958688;28;20023;-81
2020/12/21 07:37:09;;;;;;;2.40;0.60;;;19.70;99.90;;;;;;4972880;28;20019;-81
2020/12/21 07:39:37;;;;;;;3.63;0.60;;;19.60;99.90;;;;;;4955897;28;20024;-82
2020/12/21 07:42:09;;;;;;;3.25;0.73;;;19.60;99.90;;;;;;4961180;28;20061;-82
2020/12/21 07:44:40;;;;;;;4.88;1.30;;;19.60;99.90;;;;;;4975853;28;20023;-83
2020/12/21 07:47:12;;;;;;;7.05;1.80;;;19.60;99.90;;;;;;4972505;28;20120;-84
2020/12/21 07:49:39;;;;;;;3.20;1.17;;;19.50;99.90;;;;;;4955837;28;20084;-82
2020/12/21 07:52:09;;;;;;;1.73;0.88;;;19.50;99.90;;;;;;4956640;28;20037;-83
2020/12/21 07:54:44;;;;;;;3.85;0.90;;;19.50;99.90;;;;;;4975065;28;20023;-83
2020/12/21 07:57:18;;;;;;;3.28;1.00;;;19.50;99.90;;;;;;4954195;28;20093;-82
2020/12/21 08:00:06;;;;;;;6.90;0.98;;;19.60;99.90;;;;;;4987209;23;20389;-82
2020/12/21 08:02:33;;;;;;;6.43;0.70;;;19.50;99.90;;;;;;4964697;28;20114;-83
2020/12/21 08:05:01;;;;;;;4.43;0.90;;;19.50;99.90;;;;;;4970831;28;20078;-82
2020/12/21 08:07:29;;;;;;;5.45;1.33;;;19.50;99.90;;;;;;4972595;28;20373;-83
2020/12/21 08:09:58;;;;;;;2.00;0.93;;;19.50;99.90;;;;;;4973016;28;20023;-82
2020/12/21 08:12:34;;;;;;;3.58;0.95;;;19.40;99.90;;;;;;4968602;28;20038;-82
2020/12/21 08:15:03;;;;;;;3.42;0.85;;;19.20;99.90;;;;;;4957407;28;20034;-82
2020/12/21 08:17:32;;;;;;;2.63;0.80;;;19.10;99.90;;;;;;4956861;28;20054;-82
2020/12/21 08:20:05;;;;;;;3.83;1.08;;;19.10;99.90;;;;;;4974373;28;20030;-82
2020/12/21 08:22:32;;;;;;;4.60;1.23;;;19.10;99.90;;;;;;4971996;28;20038;-81
2020/12/21 08:25:11;;;;;;;3.92;0.90;;;19.10;99.90;;;;;;4967476;28;20019;-82
2020/12/21 08:27:50;;;;;;;7.68;1.83;;;19.10;99.90;;;;;;4961587;28;20062;-81
2020/12/21 08:30:23;;;;;;;5.68;2.22;;;19.10;99.90;;;;;;4966485;28;20467;-81
2020/12/21 08:32:52;;;;;;;4.95;1.38;;;19.10;99.90;;;;;;4967011;28;20023;-82
2020/12/21 08:35:29;;;;;;;8.35;1.35;;;19.10;99.90;;;;;;4973925;28;20106;-82
2020/12/21 08:38:07;;;;;;;1.67;1.15;;;19.10;99.90;;;;;;4973966;28;20546;-81
2020/12/21 08:40:35;;;;;;;5.97;2.05;;;19.10;99.90;;;;;;4974538;28;20114;-81
2020/12/21 08:43:03;;;;;;;5.80;1.90;;;19.10;99.90;;;;;;4973526;28;20019;-80
2020/12/21 08:45:30;;;;;;;4.97;1.40;;;19.00;99.90;;;;;;4956362;28;20039;-81
2020/12/21 08:47:57;;;;;;;3.13;1.20;;;19.00;99.90;;;;;;4974376;28;20101;-80
2020/12/21 08:50:25;;;;;;;3.03;1.20;;;19.00;99.90;;;;;;4975266;28;20035;-81
2020/12/21 08:52:52;;;;;;;2.92;1.42;;;19.00;99.90;;;;;;4975695;28;20025;-80
2020/12/21 08:55:19;;;;;;;2.15;1.25;;;19.00;99.90;;;;;;4955290;28;20034;-81
2020/12/21 08:57:47;;;;;;;2.42;1.30;;;19.10;99.90;;;;;;4970225;28;20031;-81
2020/12/21 09:00:14;;;;;;;4.50;1.58;;;19.00;99.90;;;;;;4972250;23;20046;-81
2020/12/21 09:02:41;;;;;;;4.50;1.95;;;19.00;99.90;;;;;;4982567;23;20059;-80
2020/12/21 09:05:08;;;;;;;2.05;1.17;;;18.90;99.90;;;;;;4978901;23;20055;-80
2020/12/21 09:07:36;;;;;;;3.10;1.17;;;18.90;99.90;;;;;;4987208;23;20452;-80
2020/12/21 09:10:05;;;;;;;3.58;1.38;;;18.80;99.90;;;;;;4974412;28;20031;-80
2020/12/21 09:12:33;;;;;;;2.10;1.10;;;18.80;99.90;;;;;;4974622;28;20042;-80
2020/12/21 09:15:00;;;;;;;3.20;1.42;;;18.80;99.90;;;;;;4974292;28;20527;-80
2020/12/21 09:17:28;;;;;;;5.88;1.10;;;18.70;99.90;;;;;;5002133;23;20132;-81
2020/12/21 09:19:55;;;;;;;2.33;1.20;;;18.70;99.90;;;;;;4993983;28;20427;-81
2020/12/21 09:22:22;;;;;;;4.70;1.27;;;18.70;99.90;;;;;;4993505;28;20022;-81
2020/12/21 09:24:49;;;;;;;3.28;1.42;;;18.80;99.90;;;;;;4968249;28;20035;-81
2020/12/21 09:27:17;;;;;;;3.55;1.60;;;18.70;99.90;;;;;;4988586;28;20060;-81
2020/12/21 09:29:44;;;;;;;4.50;1.67;;;18.80;99.90;;;;;;4977218;28;20472;-81
2020/12/21 09:32:11;;;;;;;5.00;1.63;;;18.70;99.90;;;;;;4986585;28;20056;-82
2020/12/21 09:34:39;;;;;;;2.08;1.10;;;18.80;99.90;;;;;;4983238;23;20146;-82
2020/12/21 09:37:06;;;;;;;3.33;1.90;;;18.80;99.90;;;;;;4955124;28;20049;-84
2020/12/21 09:39:33;;;;;;;3.63;1.70;;;18.70;99.90;;;;;;4955599;28;20071;-81
2020/12/21 09:42:00;;;;;;;6.13;2.20;;;18.70;99.90;;;;;;4973866;28;20035;-80
2020/12/21 09:44:28;;;;;;;3.63;1.25;;;18.70;99.90;;;;;;4973949;28;20023;-84
2020/12/21 09:46:55;;;;;;;4.53;1.40;;;18.70;99.90;;;;;;4956820;28;20031;-82
2020/12/21 09:49:22;;;;;;;2.85;1.00;;;18.60;99.90;;;;;;4959161;28;20053;-81
2020/12/21 09:51:53;;;;;;;2.17;1.30;;;18.60;99.90;;;;;;4957821;28;20093;-82
2020/12/21 09:54:21;;;;;;;8.10;2.20;;;18.60;99.90;;;;;;4941470;28;20547;-82
2020/12/21 09:56:48;;;;;;;7.20;2.17;;;18.60;99.90;;;;;;4974526;28;20035;-82
2020/12/21 09:59:16;;;;;;;6.13;1.52;;;18.60;99.90;;;;;;4974030;28;20022;-82
2020/12/21 10:01:44;;;;;;;3.95;1.30;;;18.60;99.90;;;;;;4974137;28;20054;-81
2020/12/21 10:04:11;;;;;;;5.68;2.42;;;18.60;99.90;;;;;;4974372;28;20110;-82
2020/12/21 10:06:39;;;;;;;2.58;1.38;;;18.60;99.90;;;;;;4980833;23;20058;-81
2020/12/21 10:09:06;;;;;;;3.65;1.58;;;18.60;99.90;;;;;;4959934;28;20034;-82
2020/12/21 10:11:33;;;;;;;3.45;1.35;;;18.60;99.90;;;;;;4972935;28;20129;-81
2020/12/21 10:14:01;;;;;;;2.80;1.08;;;18.60;99.90;;;;;;4972331;28;20492;-81
2020/12/21 10:16:28;;;;;;;2.90;1.45;;;18.60;99.90;;;;;;4966592;28;20051;-82
2020/12/21 10:18:55;;;;;;;4.25;1.42;;;18.50;99.90;;;;;;4974422;28;20031;-82
2020/12/21 10:21:22;;;;;;;3.60;1.20;;;18.60;99.90;;;;;;4947555;28;20118;-81
2020/12/21 10:23:50;;;;;;;2.13;1.30;;;18.50;99.90;;;;;;4955524;28;20035;-81
2020/12/21 10:26:17;;;;;;;3.53;1.23;;;18.60;99.90;;;;;;4973484;28;20019;-82
2020/12/21 10:28:44;;;;;;;2.05;0.98;;;18.60;99.90;;;;;;4974105;28;20030;-82
2020/12/21 10:31:12;;;;;;;2.63;1.25;;;18.60;99.90;;;;;;4956270;28;20484;-82
2020/12/21 10:33:39;;;;;;;2.47;1.20;;;18.50;99.90;;;;;;4971859;28;20023;-80
2020/12/21 10:36:06;;;;;;;1.95;1.13;;;18.50;99.90;;;;;;4973652;28;20035;-83
2020/12/21 10:38:33;;;;;;;3.17;1.05;;;18.50;99.90;;;;;;4975798;28;20086;-78
2020/12/21 10:41:01;;;;;;;3.92;1.20;;;18.50;99.90;;;;;;4976461;28;20105;-81
2020/12/21 10:43:28;;;;;;;3.72;1.50;;;18.60;99.90;;;;;;4972202;28;20558;-82
2020/12/21 10:45:55;;;;;;;3.25;1.48;;;18.50;99.90;;;;;;4972846;28;20027;-82
2020/12/21 10:48:22;;;;;;;2.05;1.20;;;18.60;99.90;;;;;;4975598;28;20027;-82
2020/12/21 10:50:51;;;;;;;2.80;1.40;;;18.50;99.90;;;;;;4975859;28;20502;-82
2020/12/21 10:53:18;;;;;;;2.55;1.23;;;18.50;99.90;;;;;;4962651;28;20114;-82
2020/12/21 10:55:45;;;;;;;3.88;1.65;;;18.60;99.90;;;;;;4975461;28;20311;-82
2020/12/21 10:58:13;;;;;;;5.05;1.52;;;18.60;99.90;;;;;;4971279;28;20034;-82
2020/12/21 11:00:40;;;;;;;2.13;1.20;;;18.50;99.90;;;;;;4963199;28;20038;-82
2020/12/21 11:03:07;;;;;;;4.15;1.58;;;18.50;99.90;;;;;;4974988;28;20502;-82
2020/12/21 11:05:35;;;;;;;2.72;1.33;;;18.50;99.90;;;;;;4975032;28;20464;-82
2020/12/21 11:10:30;;;;;;;4.68;1.45;;;18.50;99.90;;;;;;4961178;23;20040;-81
2020/12/21 11:12:58;;;;;;;6.00;1.45;;;18.50;99.90;;;;;;4976035;28;20031;-82
2020/12/21 11:15:25;;;;;;;5.53;2.05;;;18.50;99.90;;;;;;4980926;23;20054;-82
2020/12/21 11:17:53;;;;;;;3.80;1.40;;;18.50;99.90;;;;;;4989358;28;20320;-82
2020/12/21 11:20:20;;;;;;;2.78;1.27;;;18.60;99.90;;;;;;4976135;28;20023;-82
2020/12/21 11:22:48;;;;;;;5.72;1.58;;;18.60;99.90;;;;;;4959092;28;20054;-82
2020/12/21 11:25:15;;;;;;;3.92;1.48;;;18.60;99.90;;;;;;4994945;23;20078;-82
2020/12/21 11:27:42;;;;;;;4.47;1.60;;;18.60;99.90;;;;;;4958638;28;20030;-82
2020/12/21 11:30:10;;;;;;;3.53;1.60;;;18.60;99.90;;;;;;4976021;28;20030;-82
2020/12/21 11:32:37;;;;;;;4.13;1.83;;;18.60;99.90;;;;;;4975770;28;20034;-82
2020/12/21 11:35:05;;;;;;;3.95;1.58;;;18.50;99.90;;;;;;4970980;28;20022;-83
2020/12/21 11:37:32;;;;;;;2.90;1.48;;;18.50;99.90;;;;;;4965631;28;20151;-83
2020/12/21 11:39:59;;;;;;;2.88;1.80;;;18.40;99.90;;;;;;4977257;28;20023;-83
2020/12/21 11:42:27;;;;;;;6.43;1.90;;;18.40;99.90;;;;;;5009199;23;20499;-83
2020/12/21 11:44:54;;;;;;;3.33;2.00;;;18.40;99.90;;;;;;4991158;28;20100;-83
2020/12/21 11:47:21;;;;;;;3.88;1.95;;;18.50;99.90;;;;;;4974251;28;20082;-84
2020/12/21 11:49:49;;;;;;;4.85;2.33;;;18.50;99.90;;;;;;4975788;28;20030;-84
2020/12/21 11:52:16;;;;;;;4.80;2.60;;;18.50;99.90;;;;;;4975128;28;20069;-84
2020/12/21 11:54:43;;;;;;;4.03;2.15;;;18.50;99.90;;;;;;4975498;28;20023;-84
2020/12/21 11:57:10;;;;;;;4.68;2.25;;;18.50;99.90;;;;;;4975128;28;20134;-84
2020/12/21 11:59:38;;;;;;;4.05;2.15;;;18.50;99.90;;;;;;4963503;28;20030;-83
2020/12/21 12:02:05;;;;;;;4.78;2.20;;;18.40;99.90;;;;;;4974323;28;20031;-83
2020/12/21 12:04:33;;;;;;;3.83;2.30;;;18.40;99.90;;;;;;4975530;28;20101;-83
2020/12/21 12:07:04;;;;;;;5.00;2.30;;;18.40;99.90;;;;;;4974375;28;20025;-84
2020/12/21 12:09:31;;;;;;;5.68;2.10;;;18.40;99.90;;;;;;4953441;28;20042;-83
2020/12/21 12:11:59;;;;;;;5.68;2.75;;;18.40;99.90;;;;;;4974502;28;20039;-83
2020/12/21 12:14:26;;;;;;;3.20;2.17;;;18.40;99.90;;;;;;4982616;23;20051;-85
2020/12/21 12:16:57;;;;;;;3.47;2.40;;;18.40;99.90;;;;;;4969913;28;20043;-84
2020/12/21 12:19:25;;;;;;;3.97;2.53;;;18.30;99.90;;;;;;4975350;28;20038;-84
2020/12/21 12:21:53;;;;;;;3.83;2.35;;;18.40;99.90;;;;;;4975191;28;20073;-84
2020/12/21 12:24:20;;;;;;;4.45;3.05;;;18.40;99.90;;;;;;4967569;28;20058;-84
2020/12/21 12:26:48;;;;;;;3.13;2.45;;;18.40;99.90;;;;;;4949933;28;20034;-84
2020/12/21 12:29:15;;;;;;;4.15;2.58;;;18.50;99.90;;;;;;4974941;28;20026;-83
2020/12/21 12:31:42;;;;;;;14.65;2.63;;;18.40;99.90;;;;;;4974134;28;20074;-83
2020/12/21 12:34:10;;;;;;;5.68;2.83;;;18.40;99.90;;;;;;4959649;28;20039;-83
2020/12/21 12:36:39;;;;;;;6.95;3.05;;;18.50;99.90;;;;;;4971490;28;20476;-84
2020/12/21 12:39:06;;;;;;;3.22;2.05;;;18.50;99.90;;;;;;4973889;28;20054;-84
2020/12/21 12:41:38;;;;;;;3.88;2.15;;;18.50;99.90;;;;;;4972686;28;20029;-85
2020/12/21 12:44:06;;;;;;;3.72;2.10;;;18.50;99.90;;;;;;4970275;28;20025;-85
2020/12/21 12:46:33;;;;;;;4.05;2.10;;;18.50;99.90;;;;;;4973069;28;20034;-84
2020/12/21 12:49:05;;;;;;;3.67;2.00;;;18.40;99.90;;;;;;4972350;28;20026;-84
2020/12/21 12:51:34;;;;;;;3.53;1.85;;;18.30;99.90;;;;;;4972849;28;20073;-86
2020/12/21 12:54:01;;;;;;;2.78;1.75;;;18.30;99.90;;;;;;4955811;28;20033;-85
2020/12/21 12:56:28;;;;;;;3.83;1.75;;;18.30;99.90;;;;;;4973624;28;20102;-84
2020/12/21 12:58:56;;;;;;;3.47;1.80;;;18.30;99.90;;;;;;4965497;28;20027;-84